sensor_id;sensor_type;location;lat;lon;timestamp;pressure;altitude;pressure_sealevel;temperature;humidity
41202;BME280;26936;50.524;8.684;2023-03-03T00:02:14;99795.38;;;0.94;90.01
41202;BME280;26936;50.524;8.684;2023-03-03T00:04:39;99794.97;;;0.92;90.11
41202;BME280;26936;50.524;8.684;2023-03-03T00:07:04;99796.88;;;0.88;90.71
41202;BME280;26936;50.524;8.684;2023-03-03T00:09:30;99795.69;;;0.86;90.74
41202;BME280;26936;50.524;8.684;2023-03-03T00:11:56;99805.13;;;0.81;90.93
41202;BME280;26936;50.524;8.684;2023-03-03T00:14:28;99807.53;;;0.83;91.70
41202;BME280;26936;50.524;8.684;2023-03-03T00:16:55;99799.94;;;0.76;91.59
41202;BME280;26936;50.524;8.684;2023-03-03T00:19:21;99795.88;;;0.70;91.40
41202;BME280;26936;50.524;8.684;2023-03-03T00:21:48;99803.41;;;0.70;91.38
41202;BME280;26936;50.524;8.684;2023-03-03T00:24:23;99804.53;;;0.65;91.33
41202;BME280;26936;50.524;8.684;2023-03-03T00:26:51;99804.06;;;0.60;91.45
41202;BME280;26936;50.524;8.684;2023-03-03T00:29:27;99811.94;;;0.58;92.04
41202;BME280;26936;50.524;8.684;2023-03-03T00:31:52;99816.66;;;0.54;91.93
41202;BME280;26936;50.524;8.684;2023-03-03T00:34:19;99818.69;;;0.57;92.28
41202;BME280;26936;50.524;8.684;2023-03-03T00:36:54;99811.13;;;0.54;92.45
41202;BME280;26936;50.524;8.684;2023-03-03T00:39:33;99811.50;;;0.52;92.79
41202;BME280;26936;50.524;8.684;2023-03-03T00:42:00;99810.25;;;0.50;92.95
41202;BME280;26936;50.524;8.684;2023-03-03T00:44:42;99816.56;;;0.47;94.03
41202;BME280;26936;50.524;8.684;2023-03-03T00:50:11;99821.22;;;0.43;94.82
41202;BME280;26936;50.524;8.684;2023-03-03T00:55:20;99807.72;;;0.38;95.70
41202;BME280;26936;50.524;8.684;2023-03-03T00:57:45;99806.97;;;0.41;95.21
41202;BME280;26936;50.524;8.684;2023-03-03T01:00:11;99809.38;;;0.42;96.81
41202;BME280;26936;50.524;8.684;2023-03-03T01:02:37;99807.81;;;0.45;97.02
41202;BME280;26936;50.524;8.684;2023-03-03T01:05:02;99809.06;;;0.47;97.10
41202;BME280;26936;50.524;8.684;2023-03-03T01:07:27;99798.69;;;0.44;96.54
41202;BME280;26936;50.524;8.684;2023-03-03T01:09:53;99807.81;;;0.45;96.95
41202;BME280;26936;50.524;8.684;2023-03-03T01:12:18;99814.47;;;0.40;97.06
41202;BME280;26936;50.524;8.684;2023-03-03T01:14:43;99810.13;;;0.39;97.07
41202;BME280;26936;50.524;8.684;2023-03-03T01:17:09;99815.25;;;0.37;97.65
41202;BME280;26936;50.524;8.684;2023-03-03T01:19:34;99800.91;;;0.32;98.69
41202;BME280;26936;50.524;8.684;2023-03-03T01:22:00;99805.28;;;0.33;98.89
41202;BME280;26936;50.524;8.684;2023-03-03T01:24:25;99791.84;;;0.35;98.96
41202;BME280;26936;50.524;8.684;2023-03-03T01:26:51;99800.16;;;0.35;98.92
41202;BME280;26936;50.524;8.684;2023-03-03T01:29:16;99797.38;;;0.35;98.92
41202;BME280;26936;50.524;8.684;2023-03-03T01:31:41;99789.38;;;0.30;98.40
41202;BME280;26936;50.524;8.684;2023-03-03T01:34:07;99793.78;;;0.31;98.64
41202;BME280;26936;50.524;8.684;2023-03-03T01:36:32;99793.72;;;0.27;98.80
41202;BME280;26936;50.524;8.684;2023-03-03T01:38:58;99798.00;;;0.21;98.35
41202;BME280;26936;50.524;8.684;2023-03-03T01:41:27;99798.31;;;0.16;98.43
41202;BME280;26936;50.524;8.684;2023-03-03T01:43:54;99799.47;;;0.15;98.59
41202;BME280;26936;50.524;8.684;2023-03-03T01:46:43;99795.88;;;0.11;99.33
41202;BME280;26936;50.524;8.684;2023-03-03T01:49:44;99799.31;;;0.05;98.51
41202;BME280;26936;50.524;8.684;2023-03-03T01:52:25;99796.50;;;0.01;98.66
41202;BME280;26936;50.524;8.684;2023-03-03T01:54:56;99790.03;;;-0.07;98.18
41202;BME280;26936;50.524;8.684;2023-03-03T01:57:31;99797.50;;;-0.11;98.94
41202;BME280;26936;50.524;8.684;2023-03-03T01:59:59;99796.69;;;-0.11;98.83
41202;BME280;26936;50.524;8.684;2023-03-03T02:02:27;99803.34;;;-0.16;98.77
41202;BME280;26936;50.524;8.684;2023-03-03T02:04:53;99808.53;;;-0.14;99.35
41202;BME280;26936;50.524;8.684;2023-03-03T02:07:19;99813.53;;;-0.23;99.00
41202;BME280;26936;50.524;8.684;2023-03-03T02:12:18;99802.75;;;-0.28;98.65
41202;BME280;26936;50.524;8.684;2023-03-03T02:14:44;99803.50;;;-0.31;98.66
41202;BME280;26936;50.524;8.684;2023-03-03T02:17:09;99803.91;;;-0.29;98.99
41202;BME280;26936;50.524;8.684;2023-03-03T02:20:11;99805.94;;;-0.26;99.28
41202;BME280;26936;50.524;8.684;2023-03-03T02:25:36;99806.22;;;-0.35;100.00
41202;BME280;26936;50.524;8.684;2023-03-03T02:28:05;99800.56;;;-0.42;100.00
41202;BME280;26936;50.524;8.684;2023-03-03T02:30:36;99805.66;;;-0.44;100.00
41202;BME280;26936;50.524;8.684;2023-03-03T02:33:01;99808.34;;;-0.47;100.00
41202;BME280;26936;50.524;8.684;2023-03-03T02:35:30;99813.84;;;-0.51;100.00
41202;BME280;26936;50.524;8.684;2023-03-03T02:38:27;99814.69;;;-0.47;100.00
41202;BME280;26936;50.524;8.684;2023-03-03T02:41:14;99802.78;;;-0.51;100.00
41202;BME280;26936;50.524;8.684;2023-03-03T02:44:33;99807.94;;;-0.49;100.00
41202;BME280;26936;50.524;8.684;2023-03-03T02:46:36;99807.00;;;-0.57;100.00
41202;BME280;26936;50.524;8.684;2023-03-03T02:49:04;99807.94;;;-0.49;100.00
41202;BME280;26936;50.524;8.684;2023-03-03T02:51:29;99807.00;;;-0.57;100.00
41202;BME280;26936;50.524;8.684;2023-03-03T02:53:55;99808.19;;;-0.58;100.00
41202;BME280;26936;50.524;8.684;2023-03-03T02:56:20;99808.94;;;-0.61;100.00
41202;BME280;26936;50.524;8.684;2023-03-03T02:58:45;99810.44;;;-0.63;100.00
41202;BME280;26936;50.524;8.684;2023-03-03T03:01:11;99813.22;;;-0.63;100.00
41202;BME280;26936;50.524;8.684;2023-03-03T03:03:36;99814.31;;;-0.68;100.00
41202;BME280;26936;50.524;8.684;2023-03-03T03:06:01;99828.81;;;-0.74;100.00
41202;BME280;26936;50.524;8.684;2023-03-03T03:08:27;99820.59;;;-0.71;100.00
41202;BME280;26936;50.524;8.684;2023-03-03T03:10:52;99819.34;;;-0.73;100.00
41202;BME280;26936;50.524;8.684;2023-03-03T03:13:18;99825.25;;;-0.75;100.00
41202;BME280;26936;50.524;8.684;2023-03-03T03:15:46;99821.34;;;-0.74;100.00
41202;BME280;26936;50.524;8.684;2023-03-03T03:18:13;99825.97;;;-0.78;100.00
41202;BME280;26936;50.524;8.684;2023-03-03T03:20:38;99828.38;;;-0.76;100.00
41202;BME280;26936;50.524;8.684;2023-03-03T03:23:05;99824.94;;;-0.70;100.00
41202;BME280;26936;50.524;8.684;2023-03-03T03:25:30;99829.06;;;-0.60;100.00
41202;BME280;26936;50.524;8.684;2023-03-03T03:27:56;99834.00;;;-0.50;100.00
41202;BME280;26936;50.524;8.684;2023-03-03T03:30:21;99830.13;;;-0.46;100.00
41202;BME280;26936;50.524;8.684;2023-03-03T03:32:46;99824.59;;;-0.46;100.00
41202;BME280;26936;50.524;8.684;2023-03-03T03:35:12;99827.41;;;-0.42;100.00
41202;BME280;26936;50.524;8.684;2023-03-03T03:37:37;99829.88;;;-0.37;100.00
41202;BME280;26936;50.524;8.684;2023-03-03T03:40:03;99823.56;;;-0.38;100.00
41202;BME280;26936;50.524;8.684;2023-03-03T03:42:28;99830.25;;;-0.39;100.00
41202;BME280;26936;50.524;8.684;2023-03-03T03:44:54;99830.69;;;-0.37;100.00
41202;BME280;26936;50.524;8.684;2023-03-03T03:47:19;99828.41;;;-0.31;100.00
41202;BME280;26936;50.524;8.684;2023-03-03T03:49:44;99829.38;;;-0.20;100.00
41202;BME280;26936;50.524;8.684;2023-03-03T03:52:09;99842.84;;;-0.19;100.00
41202;BME280;26936;50.524;8.684;2023-03-03T03:54:35;99845.38;;;-0.10;100.00
41202;BME280;26936;50.524;8.684;2023-03-03T03:57:00;99837.53;;;-0.05;100.00
41202;BME280;26936;50.524;8.684;2023-03-03T03:59:26;99831.75;;;0.04;100.00
41202;BME280;26936;50.524;8.684;2023-03-03T04:01:51;99826.22;;;0.04;100.00
41202;BME280;26936;50.524;8.684;2023-03-03T04:04:16;99827.91;;;0.12;100.00
41202;BME280;26936;50.524;8.684;2023-03-03T04:06:42;99839.88;;;0.16;100.00
41202;BME280;26936;50.524;8.684;2023-03-03T04:09:07;99836.47;;;0.26;100.00
41202;BME280;26936;50.524;8.684;2023-03-03T04:11:32;99838.88;;;0.31;100.00
41202;BME280;26936;50.524;8.684;2023-03-03T04:13:57;99840.50;;;0.32;100.00
41202;BME280;26936;50.524;8.684;2023-03-03T04:16:23;99833.41;;;0.35;100.00
41202;BME280;26936;50.524;8.684;2023-03-03T04:18:48;99831.53;;;0.42;100.00
41202;BME280;26936;50.524;8.684;2023-03-03T04:21:14;99829.53;;;0.43;100.00
41202;BME280;26936;50.524;8.684;2023-03-03T04:23:39;99836.34;;;0.45;100.00
41202;BME280;26936;50.524;8.684;2023-03-03T04:26:05;99845.03;;;0.44;100.00
41202;BME280;26936;50.524;8.684;2023-03-03T04:28:30;99849.88;;;0.50;100.00
41202;BME280;26936;50.524;8.684;2023-03-03T04:30:56;99853.47;;;0.54;100.00
41202;BME280;26936;50.524;8.684;2023-03-03T04:33:21;99856.28;;;0.58;100.00
41202;BME280;26936;50.524;8.684;2023-03-03T04:35:46;99847.97;;;0.58;100.00
41202;BME280;26936;50.524;8.684;2023-03-03T04:38:12;99855.22;;;0.66;100.00
41202;BME280;26936;50.524;8.684;2023-03-03T04:40:39;99857.22;;;0.69;100.00
41202;BME280;26936;50.524;8.684;2023-03-03T04:43:05;99849.63;;;0.62;100.00
41202;BME280;26936;50.524;8.684;2023-03-03T04:45:31;99860.44;;;0.71;100.00
41202;BME280;26936;50.524;8.684;2023-03-03T04:47:56;99849.00;;;0.76;100.00
41202;BME280;26936;50.524;8.684;2023-03-03T04:50:21;99850.16;;;0.71;100.00
41202;BME280;26936;50.524;8.684;2023-03-03T04:52:46;99859.63;;;0.70;100.00
41202;BME280;26936;50.524;8.684;2023-03-03T04:55:12;99857.59;;;0.67;100.00
41202;BME280;26936;50.524;8.684;2023-03-03T04:57:38;99854.84;;;0.67;100.00
41202;BME280;26936;50.524;8.684;2023-03-03T05:00:04;99842.66;;;0.72;100.00
41202;BME280;26936;50.524;8.684;2023-03-03T05:02:30;99842.22;;;0.70;100.00
41202;BME280;26936;50.524;8.684;2023-03-03T05:04:55;99852.97;;;0.75;100.00
41202;BME280;26936;50.524;8.684;2023-03-03T05:07:21;99853.03;;;0.78;100.00
41202;BME280;26936;50.524;8.684;2023-03-03T05:09:46;99851.09;;;0.82;100.00
41202;BME280;26936;50.524;8.684;2023-03-03T05:12:11;99850.69;;;0.84;100.00
41202;BME280;26936;50.524;8.684;2023-03-03T05:14:37;99846.78;;;0.85;100.00
41202;BME280;26936;50.524;8.684;2023-03-03T05:17:02;99846.28;;;0.79;100.00
41202;BME280;26936;50.524;8.684;2023-03-03T05:19:28;99856.25;;;0.84;100.00
41202;BME280;26936;50.524;8.684;2023-03-03T05:21:54;99850.69;;;0.84;100.00
41202;BME280;26936;50.524;8.684;2023-03-03T05:24:20;99861.91;;;0.91;100.00
41202;BME280;26936;50.524;8.684;2023-03-03T05:26:45;99857.50;;;0.90;100.00
41202;BME280;26936;50.524;8.684;2023-03-03T05:29:10;99863.41;;;0.85;100.00
41202;BME280;26936;50.524;8.684;2023-03-03T05:31:36;99854.66;;;0.83;100.00
41202;BME280;26936;50.524;8.684;2023-03-03T05:34:01;99863.44;;;0.88;100.00
41202;BME280;26936;50.524;8.684;2023-03-03T05:36:27;99857.56;;;0.93;100.00
41202;BME280;26936;50.524;8.684;2023-03-03T05:38:52;99860.91;;;1.06;100.00
41202;BME280;26936;50.524;8.684;2023-03-03T05:41:17;99870.31;;;0.98;100.00
41202;BME280;26936;50.524;8.684;2023-03-03T05:43:43;99869.13;;;0.99;100.00
41202;BME280;26936;50.524;8.684;2023-03-03T05:46:09;99867.38;;;0.87;100.00
41202;BME280;26936;50.524;8.684;2023-03-03T05:48:34;99863.75;;;0.80;100.00
41202;BME280;26936;50.524;8.684;2023-03-03T05:50:59;99867.78;;;0.86;100.00
41202;BME280;26936;50.524;8.684;2023-03-03T05:53:26;99863.34;;;0.81;100.00
41202;BME280;26936;50.524;8.684;2023-03-03T05:55:52;99875.22;;;0.82;100.00
41202;BME280;26936;50.524;8.684;2023-03-03T05:58:17;99879.25;;;0.84;100.00
41202;BME280;26936;50.524;8.684;2023-03-03T06:00:42;99883.66;;;0.89;100.00
41202;BME280;26936;50.524;8.684;2023-03-03T06:03:07;99882.44;;;0.86;100.00
41202;BME280;26936;50.524;8.684;2023-03-03T06:05:33;99883.22;;;0.87;100.00
41202;BME280;26936;50.524;8.684;2023-03-03T06:07:58;99883.16;;;0.83;100.00
41202;BME280;26936;50.524;8.684;2023-03-03T06:10:24;99892.19;;;0.77;100.00
41202;BME280;26936;50.524;8.684;2023-03-03T06:12:49;99892.72;;;0.86;100.00
41202;BME280;26936;50.524;8.684;2023-03-03T06:15:14;99894.38;;;0.90;100.00
41202;BME280;26936;50.524;8.684;2023-03-03T06:17:39;99897.56;;;0.92;100.00
41202;BME280;26936;50.524;8.684;2023-03-03T06:20:05;99901.53;;;0.91;100.00
41202;BME280;26936;50.524;8.684;2023-03-03T06:22:31;99905.41;;;0.87;100.00
41202;BME280;26936;50.524;8.684;2023-03-03T06:24:56;99908.66;;;0.92;100.00
41202;BME280;26936;50.524;8.684;2023-03-03T06:27:21;99908.78;;;1.03;100.00
41202;BME280;26936;50.524;8.684;2023-03-03T06:29:47;99903.94;;;0.96;100.00
41202;BME280;26936;50.524;8.684;2023-03-03T06:32:12;99913.50;;;0.99;100.00
41202;BME280;26936;50.524;8.684;2023-03-03T06:34:38;99920.97;;;0.95;100.00
41202;BME280;26936;50.524;8.684;2023-03-03T06:37:03;99935.63;;;0.95;100.00
41202;BME280;26936;50.524;8.684;2023-03-03T06:39:29;99931.31;;;0.98;100.00
41202;BME280;26936;50.524;8.684;2023-03-03T06:41:54;99950.13;;;1.11;100.00
41202;BME280;26936;50.524;8.684;2023-03-03T06:44:19;99946.41;;;1.00;100.00
41202;BME280;26936;50.524;8.684;2023-03-03T06:46:45;99943.56;;;0.97;100.00
41202;BME280;26936;50.524;8.684;2023-03-03T06:49:10;99952.00;;;1.04;100.00
41202;BME280;26936;50.524;8.684;2023-03-03T06:51:37;99961.47;;;0.99;100.00
41202;BME280;26936;50.524;8.684;2023-03-03T06:54:18;99955.22;;;1.06;100.00
41202;BME280;26936;50.524;8.684;2023-03-03T06:56:44;99957.56;;;1.04;100.00
41202;BME280;26936;50.524;8.684;2023-03-03T07:02:32;99981.59;;;0.96;100.00
41202;BME280;26936;50.524;8.684;2023-03-03T07:04:57;99976.34;;;0.88;100.00
41202;BME280;26936;50.524;8.684;2023-03-03T07:07:25;99981.13;;;0.91;100.00
41202;BME280;26936;50.524;8.684;2023-03-03T07:09:55;99984.75;;;0.95;100.00
41202;BME280;26936;50.524;8.684;2023-03-03T07:12:23;99983.09;;;0.90;100.00
41202;BME280;26936;50.524;8.684;2023-03-03T07:14:54;99979.00;;;0.81;100.00
41202;BME280;26936;50.524;8.684;2023-03-03T07:17:23;99993.31;;;0.83;100.00
41202;BME280;26936;50.524;8.684;2023-03-03T07:19:49;99994.25;;;0.94;100.00
41202;BME280;26936;50.524;8.684;2023-03-03T07:22:20;99988.72;;;0.94;100.00
41202;BME280;26936;50.524;8.684;2023-03-03T07:24:49;99987.13;;;0.96;100.00
41202;BME280;26936;50.524;8.684;2023-03-03T07:29:46;99980.19;;;1.06;100.00
41202;BME280;26936;50.524;8.684;2023-03-03T07:32:34;99986.19;;;1.11;100.00
41202;BME280;26936;50.524;8.684;2023-03-03T07:35:36;99997.38;;;1.18;100.00
41202;BME280;26936;50.524;8.684;2023-03-03T07:38:33;100009.31;;;1.22;100.00
41202;BME280;26936;50.524;8.684;2023-03-03T07:40:57;99999.28;;;1.14;100.00
41202;BME280;26936;50.524;8.684;2023-03-03T07:43:52;100012.47;;;1.21;100.00
41202;BME280;26936;50.524;8.684;2023-03-03T07:48:56;100016.75;;;1.15;100.00
41202;BME280;26936;50.524;8.684;2023-03-03T07:51:38;100011.16;;;1.11;100.00
41202;BME280;26936;50.524;8.684;2023-03-03T07:54:34;100019.94;;;1.17;100.00
41202;BME280;26936;50.524;8.684;2023-03-03T07:57:28;100018.94;;;1.28;100.00
41202;BME280;26936;50.524;8.684;2023-03-03T08:00:01;100023.41;;;1.36;100.00
41202;BME280;26936;50.524;8.684;2023-03-03T08:05:23;100023.44;;;1.40;100.00
41202;BME280;26936;50.524;8.684;2023-03-03T08:07:51;100027.06;;;1.44;100.00
41202;BME280;26936;50.524;8.684;2023-03-03T08:10:49;100024.38;;;1.51;100.00
41202;BME280;26936;50.524;8.684;2023-03-03T08:13:18;100032.19;;;1.42;100.00
41202;BME280;26936;50.524;8.684;2023-03-03T08:15:45;100020.75;;;1.47;100.00
41202;BME280;26936;50.524;8.684;2023-03-03T08:18:18;100022.47;;;1.59;100.00
41202;BME280;26936;50.524;8.684;2023-03-03T08:20:54;100017.34;;;1.61;100.00
41202;BME280;26936;50.524;8.684;2023-03-03T08:23:20;100023.00;;;1.68;100.00
41202;BME280;26936;50.524;8.684;2023-03-03T08:25:47;100023.38;;;1.66;100.00
41202;BME280;26936;50.524;8.684;2023-03-03T08:28:13;100022.34;;;1.81;100.00
41202;BME280;26936;50.524;8.684;2023-03-03T08:30:39;100012.06;;;1.82;100.00
41202;BME280;26936;50.524;8.684;2023-03-03T08:33:04;100018.19;;;1.98;100.00
41202;BME280;26936;50.524;8.684;2023-03-03T08:35:30;100029.63;;;1.93;99.75
41202;BME280;26936;50.524;8.684;2023-03-03T08:37:55;100032.03;;;1.94;100.00
41202;BME280;26936;50.524;8.684;2023-03-03T08:40:21;100039.88;;;1.85;100.00
41202;BME280;26936;50.524;8.684;2023-03-03T08:42:46;100030.75;;;1.85;99.23
41202;BME280;26936;50.524;8.684;2023-03-03T08:45:11;100044.56;;;1.81;99.83
41202;BME280;26936;50.524;8.684;2023-03-03T08:47:37;100044.69;;;1.88;99.68
41202;BME280;26936;50.524;8.684;2023-03-03T08:50:03;100036.47;;;1.99;97.85
41202;BME280;26936;50.524;8.684;2023-03-03T08:52:28;100037.34;;;2.06;98.10
41202;BME280;26936;50.524;8.684;2023-03-03T08:54:53;100038.06;;;2.00;98.20
41202;BME280;26936;50.524;8.684;2023-03-03T08:57:19;100041.66;;;2.00;99.00
41202;BME280;26936;50.524;8.684;2023-03-03T08:59:44;100040.16;;;2.10;98.59
41202;BME280;26936;50.524;8.684;2023-03-03T09:02:11;100046.59;;;2.17;97.84
41202;BME280;26936;50.524;8.684;2023-03-03T09:04:37;100045.53;;;2.29;97.91
41202;BME280;26936;50.524;8.684;2023-03-03T09:07:02;100053.94;;;2.36;96.58
41202;BME280;26936;50.524;8.684;2023-03-03T09:09:28;100050.84;;;2.44;95.97
41202;BME280;26936;50.524;8.684;2023-03-03T09:11:57;100055.94;;;2.39;96.44
41202;BME280;26936;50.524;8.684;2023-03-03T09:14:26;100055.22;;;2.45;95.79
41202;BME280;26936;50.524;8.684;2023-03-03T09:16:53;100052.88;;;2.47;96.26
41202;BME280;26936;50.524;8.684;2023-03-03T09:19:31;100051.00;;;2.62;95.38
41202;BME280;26936;50.524;8.684;2023-03-03T09:22:18;100056.81;;;2.46;96.10
41202;BME280;26936;50.524;8.684;2023-03-03T09:24:46;100063.72;;;2.63;95.18
41202;BME280;26936;50.524;8.684;2023-03-03T09:27:18;100064.50;;;2.60;95.39
41202;BME280;26936;50.524;8.684;2023-03-03T09:29:46;100067.63;;;2.55;95.08
41202;BME280;26936;50.524;8.684;2023-03-03T09:32:33;100064.06;;;2.54;94.88
41202;BME280;26936;50.524;8.684;2023-03-03T09:35:42;100063.34;;;2.64;94.56
41202;BME280;26936;50.524;8.684;2023-03-03T09:37:50;100065.84;;;2.76;95.03
41202;BME280;26936;50.524;8.684;2023-03-03T09:43:08;100070.25;;;2.81;93.72
41202;BME280;26936;50.524;8.684;2023-03-03T09:45:50;100073.81;;;2.78;93.91
41202;BME280;26936;50.524;8.684;2023-03-03T09:48:27;100078.94;;;2.76;92.93
41202;BME280;26936;50.524;8.684;2023-03-03T09:53:56;100077.34;;;2.75;93.49
41202;BME280;26936;50.524;8.684;2023-03-03T09:56:32;100081.94;;;2.57;92.95
41202;BME280;26936;50.524;8.684;2023-03-03T10:01:58;100096.53;;;2.47;93.38
41202;BME280;26936;50.524;8.684;2023-03-03T10:04:54;100107.91;;;2.71;92.84
41202;BME280;26936;50.524;8.684;2023-03-03T10:15:35;100109.63;;;2.43;94.79
41202;BME280;26936;50.524;8.684;2023-03-03T10:18:19;100114.84;;;2.48;94.20
41202;BME280;26936;50.524;8.684;2023-03-03T10:21:07;100111.69;;;2.49;93.24
41202;BME280;26936;50.524;8.684;2023-03-03T10:29:07;100118.56;;;2.62;91.79
41202;BME280;26936;50.524;8.684;2023-03-03T10:34:53;100120.44;;;2.55;93.03
41202;BME280;26936;50.524;8.684;2023-03-03T10:40:37;100110.22;;;3.06;90.35
41202;BME280;26936;50.524;8.684;2023-03-03T10:46:07;100109.31;;;4.18;84.29
41202;BME280;26936;50.524;8.684;2023-03-03T10:50:09;100107.09;;;4.79;82.06
41202;BME280;26936;50.524;8.684;2023-03-03T10:57:44;100110.75;;;6.54;73.65
41202;BME280;26936;50.524;8.684;2023-03-03T11:00:23;100097.84;;;7.66;70.02
41202;BME280;26936;50.524;8.684;2023-03-03T11:05:50;100098.53;;;9.24;63.69
41202;BME280;26936;50.524;8.684;2023-03-03T11:08:40;100098.56;;;8.97;62.27
41202;BME280;26936;50.524;8.684;2023-03-03T11:11:23;100104.19;;;8.07;64.14
41202;BME280;26936;50.524;8.684;2023-03-03T11:17:20;100096.56;;;7.33;66.13
41202;BME280;26936;50.524;8.684;2023-03-03T11:19:56;100107.09;;;7.19;67.35
41202;BME280;26936;50.524;8.684;2023-03-03T11:22:38;100112.88;;;6.94;67.42
41202;BME280;26936;50.524;8.684;2023-03-03T11:30:38;100098.97;;;6.80;69.04
41202;BME280;26936;50.524;8.684;2023-03-03T11:40:50;100081.72;;;8.10;64.73
41202;BME280;26936;50.524;8.684;2023-03-03T11:43:33;100079.09;;;7.93;64.27
41202;BME280;26936;50.524;8.684;2023-03-03T11:46:14;100073.94;;;8.25;63.68
41202;BME280;26936;50.524;8.684;2023-03-03T11:48:57;100076.28;;;8.30;63.37
41202;BME280;26936;50.524;8.684;2023-03-03T11:51:33;100070.44;;;8.48;61.23
41202;BME280;26936;50.524;8.684;2023-03-03T11:54:19;100059.44;;;8.57;61.79
41202;BME280;26936;50.524;8.684;2023-03-03T11:56:47;100058.31;;;8.54;60.62
41202;BME280;26936;50.524;8.684;2023-03-03T11:59:17;100047.66;;;8.08;62.80
41202;BME280;26936;50.524;8.684;2023-03-03T12:01:56;100048.59;;;8.85;61.84
41202;BME280;26936;50.524;8.684;2023-03-03T12:09:45;100043.34;;;9.56;59.70
41202;BME280;26936;50.524;8.684;2023-03-03T12:12:26;100033.94;;;9.43;59.88
41202;BME280;26936;50.524;8.684;2023-03-03T12:20:17;100025.09;;;9.64;58.21
41202;BME280;26936;50.524;8.684;2023-03-03T12:28:23;100029.13;;;9.44;58.13
41202;BME280;26936;50.524;8.684;2023-03-03T12:31:01;100027.88;;;9.45;57.91
41202;BME280;26936;50.524;8.684;2023-03-03T12:36:21;100019.19;;;9.16;59.49
41202;BME280;26936;50.524;8.684;2023-03-03T12:44:25;100013.13;;;9.18;59.90
41202;BME280;26936;50.524;8.684;2023-03-03T12:47:02;100007.50;;;8.95;59.80
41202;BME280;26936;50.524;8.684;2023-03-03T12:49:53;100008.63;;;9.43;59.66
41202;BME280;26936;50.524;8.684;2023-03-03T12:52:28;100005.72;;;9.50;59.13
41202;BME280;26936;50.524;8.684;2023-03-03T12:55:04;99992.91;;;9.26;60.91
41202;BME280;26936;50.524;8.684;2023-03-03T13:02:56;99991.13;;;8.90;61.61
41202;BME280;26936;50.524;8.684;2023-03-03T13:05:43;99985.56;;;8.63;61.71
41202;BME280;26936;50.524;8.684;2023-03-03T13:08:24;99985.13;;;8.65;62.00
41202;BME280;26936;50.524;8.684;2023-03-03T13:13:39;99984.84;;;8.59;62.06
41202;BME280;26936;50.524;8.684;2023-03-03T13:16:11;99979.63;;;8.31;63.32
41202;BME280;26936;50.524;8.684;2023-03-03T13:19:08;99986.16;;;8.24;63.63
41202;BME280;26936;50.524;8.684;2023-03-03T13:21:46;99983.50;;;8.41;63.81
41202;BME280;26936;50.524;8.684;2023-03-03T13:24:20;99982.72;;;8.10;63.25
41202;BME280;26936;50.524;8.684;2023-03-03T13:32:09;99976.84;;;8.01;63.69
41202;BME280;26936;50.524;8.684;2023-03-03T13:37:23;99960.16;;;7.90;64.11
41202;BME280;26936;50.524;8.684;2023-03-03T13:40:05;99971.31;;;7.94;64.04
41202;BME280;26936;50.524;8.684;2023-03-03T13:46:03;99968.19;;;7.88;63.42
41202;BME280;26936;50.524;8.684;2023-03-03T13:51:03;99967.78;;;7.86;64.58
41202;BME280;26936;50.524;8.684;2023-03-03T14:04:28;99944.16;;;7.57;65.06
41202;BME280;26936;50.524;8.684;2023-03-03T14:07:01;99941.44;;;7.50;66.92
41202;BME280;26936;50.524;8.684;2023-03-03T14:12:11;99941.38;;;7.54;66.82
41202;BME280;26936;50.524;8.684;2023-03-03T14:15:05;99936.03;;;7.66;67.57
41202;BME280;26936;50.524;8.684;2023-03-03T14:17:41;99939.63;;;7.67;66.71
41202;BME280;26936;50.524;8.684;2023-03-03T14:20:21;99934.00;;;7.67;65.68
41202;BME280;26936;50.524;8.684;2023-03-03T14:23:22;99934.72;;;7.74;65.88
41202;BME280;26936;50.524;8.684;2023-03-03T14:25:56;99929.66;;;7.62;66.15
41202;BME280;26936;50.524;8.684;2023-03-03T14:28:24;99934.44;;;7.65;66.47
41202;BME280;26936;50.524;8.684;2023-03-03T14:30:53;99938.47;;;7.64;66.29
41202;BME280;26936;50.524;8.684;2023-03-03T14:33:22;99937.16;;;7.42;67.73
41202;BME280;26936;50.524;8.684;2023-03-03T14:36:01;99936.72;;;7.44;68.14
41202;BME280;26936;50.524;8.684;2023-03-03T14:46:30;99928.56;;;7.56;66.25
41202;BME280;26936;50.524;8.684;2023-03-03T14:49:00;99925.72;;;7.60;66.14
41202;BME280;26936;50.524;8.684;2023-03-03T14:51:37;99927.75;;;7.56;66.57
41202;BME280;26936;50.524;8.684;2023-03-03T14:54:09;99923.47;;;7.44;67.38
41202;BME280;26936;50.524;8.684;2023-03-03T14:57:09;99922.28;;;7.45;66.98
41202;BME280;26936;50.524;8.684;2023-03-03T14:59:36;99919.22;;;7.33;67.24
41202;BME280;26936;50.524;8.684;2023-03-03T15:04:32;99910.38;;;7.34;67.39
41202;BME280;26936;50.524;8.684;2023-03-03T15:06:58;99920.78;;;7.37;67.36
41202;BME280;26936;50.524;8.684;2023-03-03T15:09:39;99917.91;;;7.41;66.60
41202;BME280;26936;50.524;8.684;2023-03-03T15:12:22;99910.47;;;7.31;65.12
41202;BME280;26936;50.524;8.684;2023-03-03T15:14:50;99909.63;;;7.34;65.31
41202;BME280;26936;50.524;8.684;2023-03-03T15:25:14;99915.97;;;7.01;66.90
41202;BME280;26936;50.524;8.684;2023-03-03T15:27:48;99918.44;;;6.95;65.24
41202;BME280;26936;50.524;8.684;2023-03-03T15:33:29;99912.63;;;6.75;68.23
41202;BME280;26936;50.524;8.684;2023-03-03T15:36:16;99910.97;;;6.85;67.92
41202;BME280;26936;50.524;8.684;2023-03-03T15:52:55;99911.91;;;6.68;68.15
41202;BME280;26936;50.524;8.684;2023-03-03T15:55:32;99916.34;;;6.65;68.95
41202;BME280;26936;50.524;8.684;2023-03-03T16:01:06;99914.97;;;6.36;72.02
41202;BME280;26936;50.524;8.684;2023-03-03T16:03:37;99912.16;;;6.36;72.32
41202;BME280;26936;50.524;8.684;2023-03-03T16:06:26;99908.63;;;6.32;73.35
41202;BME280;26936;50.524;8.684;2023-03-03T16:17:03;99914.38;;;6.11;75.32
41202;BME280;26936;50.524;8.684;2023-03-03T16:25:25;99926.03;;;5.96;76.59
41202;BME280;26936;50.524;8.684;2023-03-03T16:31:05;99929.28;;;5.91;76.83
41202;BME280;26936;50.524;8.684;2023-03-03T16:33:50;99926.88;;;5.93;76.59
41202;BME280;26936;50.524;8.684;2023-03-03T16:38:53;99928.50;;;5.90;77.16
41202;BME280;26936;50.524;8.684;2023-03-03T16:44:33;99927.75;;;5.79;77.21